Time;durP1;ratioP1;P1;durP2;ratioP2;P2;SDS_P1;SDS_P2;PMS_P1;PMS_P2;Temp;Humidity;BMP_temperature;BMP_pressure;BME280_temperature;BME280_humidity;BME280_pressure;Samples;Min_cycle;Max_cycle;Signal;HPM_P1;HPM_P2
2022/12/25 00:00:31;;;;;;;4.57;2.22;;;17.00;72.90;;;;;;5071545;27;45482;-71
2022/12/25 00:02:57;;;;;;;9.05;2.65;;;17.00;72.90;;;;;;5054391;28;45432;-72
2022/12/25 00:05:24;;;;;;;4.90;2.45;;;17.00;72.90;;;;;;5068699;28;45428;-71
2022/12/25 00:07:51;;;;;;;5.13;2.60;;;17.00;73.00;;;;;;5070794;28;45447;-71
2022/12/25 00:10:19;;;;;;;4.20;2.03;;;17.00;73.00;;;;;;5060270;28;45244;-72
2022/12/25 00:12:46;;;;;;;5.60;2.38;;;17.00;73.00;;;;;;5069554;27;47059;-72
2022/12/25 00:15:13;;;;;;;5.40;2.22;;;17.00;72.90;;;;;;5054075;27;45273;-71
2022/12/25 00:17:39;;;;;;;5.95;2.13;;;17.00;72.80;;;;;;5052057;28;45276;-71
2022/12/25 00:20:08;;;;;;;5.10;1.95;;;17.10;72.90;;;;;;5071986;28;45633;-71
2022/12/25 00:22:35;;;;;;;5.32;2.30;;;17.10;72.80;;;;;;5053539;27;46294;-72
2022/12/25 00:25:01;;;;;;;9.13;2.13;;;17.10;72.70;;;;;;5066819;28;45597;-72
2022/12/25 00:27:31;;;;;;;3.97;1.92;;;17.10;72.60;;;;;;5069662;27;45517;-72
2022/12/25 00:29:58;;;;;;;6.68;2.17;;;17.10;72.70;;;;;;5059286;27;45890;-72
2022/12/25 00:32:25;;;;;;;3.67;2.20;;;17.10;72.60;;;;;;5070018;28;45419;-71
2022/12/25 00:34:52;;;;;;;4.10;1.92;;;17.10;72.60;;;;;;5075620;27;45271;-71
2022/12/25 00:37:18;;;;;;;4.00;1.90;;;17.10;72.60;;;;;;5060864;28;45398;-72
2022/12/25 00:39:47;;;;;;;4.57;2.10;;;17.10;72.80;;;;;;5068920;28;45505;-71
2022/12/25 00:42:20;;;;;;;4.47;2.00;;;17.10;72.80;;;;;;5055947;28;45438;-71
2022/12/25 00:44:49;;;;;;;4.55;1.90;;;17.00;72.70;;;;;;5052025;28;45447;-71
2022/12/25 00:47:17;;;;;;;3.45;1.85;;;17.00;73.90;;;;;;5052150;28;45273;-71
2022/12/25 00:49:44;;;;;;;5.43;1.88;;;17.00;72.90;;;;;;5083739;27;45344;-71
2022/12/25 00:52:11;;;;;;;3.40;1.77;;;17.00;72.90;;;;;;5072610;27;47525;-71
2022/12/25 00:54:38;;;;;;;4.18;1.88;;;17.00;73.00;;;;;;5082756;27;45703;-71
2022/12/25 00:57:05;;;;;;;4.07;1.52;;;17.00;73.00;;;;;;5050687;27;45621;-71
2022/12/25 00:59:32;;;;;;;4.82;2.17;;;17.00;73.00;;;;;;5069285;27;45601;-71
2022/12/25 01:02:22;;;;;;;4.72;2.03;;;17.10;73.20;;;;;;5064417;28;46271;-72
2022/12/25 01:04:49;;;;;;;3.60;2.00;;;17.10;73.20;;;;;;5065366;28;45331;-71
2022/12/25 01:07:16;;;;;;;5.43;2.22;;;17.10;73.10;;;;;;5073677;27;45355;-71
2022/12/25 01:12:28;;;;;;;5.15;2.05;;;17.10;72.90;;;;;;5063852;28;45725;-72
2022/12/25 01:14:55;;;;;;;6.40;2.42;;;17.10;72.80;;;;;;5060977;28;45412;-71
2022/12/25 01:17:23;;;;;;;6.20;2.38;;;17.10;72.80;;;;;;5082160;27;45270;-71
2022/12/25 01:19:50;;;;;;;3.17;1.90;;;17.10;72.80;;;;;;5082681;27;45473;-71
2022/12/25 01:22:17;;;;;;;5.72;2.05;;;17.10;72.60;;;;;;5067565;27;48075;-71
2022/12/25 01:24:44;;;;;;;4.38;1.92;;;17.10;72.70;;;;;;5076059;27;45976;-71
2022/12/25 01:27:11;;;;;;;3.83;1.75;;;17.10;72.60;;;;;;5079464;28;45351;-71
2022/12/25 01:29:38;;;;;;;4.88;1.73;;;17.10;72.80;;;;;;5082437;27;45415;-72
2022/12/25 01:32:06;;;;;;;6.22;2.08;;;17.10;72.80;;;;;;5046381;27;45329;-71
2022/12/25 01:34:34;;;;;;;2.80;1.67;;;17.10;72.90;;;;;;5042743;28;45458;-71
2022/12/25 01:37:01;;;;;;;5.10;2.05;;;17.10;72.90;;;;;;5053624;28;45265;-71
2022/12/25 01:39:29;;;;;;;3.65;1.90;;;17.10;72.90;;;;;;5059071;28;45336;-71
2022/12/25 01:41:56;;;;;;;5.70;1.88;;;17.10;73.00;;;;;;5056223;28;48056;-71
2022/12/25 01:45:01;;;;;;;5.18;2.10;;;17.00;72.90;;;;;;5072836;28;45320;-71
2022/12/25 01:47:27;;;;;;;4.72;1.85;;;17.00;73.00;;;;;;5040714;28;45338;-71
2022/12/25 01:49:56;;;;;;;3.25;1.77;;;17.10;73.10;;;;;;5048641;28;45541;-72
2022/12/25 01:52:24;;;;;;;5.38;1.90;;;17.00;73.10;;;;;;5065855;28;47272;-71
2022/12/25 01:54:55;;;;;;;5.10;1.85;;;17.00;73.10;;;;;;5066445;27;45349;-71
2022/12/25 01:57:25;;;;;;;4.35;1.88;;;17.00;73.10;;;;;;5061002;28;45565;-72
2022/12/25 01:59:53;;;;;;;3.08;1.63;;;17.10;73.30;;;;;;5061339;28;45282;-72
2022/12/25 02:02:22;;;;;;;4.70;2.00;;;17.10;73.10;;;;;;5053385;28;45442;-71
2022/12/25 02:04:53;;;;;;;3.80;1.50;;;17.10;73.00;;;;;;5055743;28;45413;-71
2022/12/25 02:07:25;;;;;;;3.38;1.52;;;17.10;73.00;;;;;;5055245;28;45367;-73
2022/12/25 02:09:53;;;;;;;3.83;1.50;;;17.10;72.90;;;;;;5071732;28;45499;-71
2022/12/25 02:12:22;;;;;;;4.05;1.70;;;17.10;72.90;;;;;;5060166;27;46712;-71
2022/12/25 02:14:51;;;;;;;2.65;1.42;;;17.10;73.00;;;;;;5057484;28;45334;-71
2022/12/25 02:17:23;;;;;;;4.07;1.70;;;17.10;72.90;;;;;;5064932;28;45507;-71
2022/12/25 02:20:15;;;;;;;3.55;1.60;;;17.20;73.00;;;;;;5068810;27;45226;-71
2022/12/25 02:22:56;;;;;;;5.07;1.98;;;17.10;72.90;;;;;;5059359;28;47236;-72
2022/12/25 02:25:42;;;;;;;3.45;1.60;;;17.20;73.00;;;;;;5061334;28;45886;-72
2022/12/25 02:28:16;;;;;;;3.20;1.40;;;17.10;73.10;;;;;;5074923;28;45353;-71
2022/12/25 02:30:52;;;;;;;4.22;1.80;;;17.10;73.10;;;;;;5071386;28;45387;-71
2022/12/25 02:36:16;;;;;;;4.07;1.70;;;17.10;73.20;;;;;;5085151;28;45449;-71
2022/12/25 02:39:56;;;;;;;3.85;1.70;;;17.10;73.30;;;;;;5073705;27;45407;-71
2022/12/25 02:41:38;;;;;;;3.20;1.60;;;17.10;73.30;;;;;;5061924;28;45446;-71
2022/12/25 03:06:43;;;;;;;3.60;1.70;;;17.10;73.10;;;;;;5080998;28;45729;-71
2022/12/25 03:12:04;;;;;;;3.00;1.15;;;17.10;73.10;;;;;;5082002;28;45454;-72
2022/12/25 03:17:17;;;;;;;1.55;1.15;;;17.10;73.00;;;;;;5042228;28;45400;-71
2022/12/25 03:28:02;;;;;;;3.83;1.38;;;17.10;73.30;;;;;;5059395;28;45815;-72
2022/12/25 03:33:31;;;;;;;3.63;1.27;;;17.10;73.40;;;;;;5066677;28;45511;-71
2022/12/25 03:36:05;;;;;;;3.95;1.35;;;17.10;73.50;;;;;;5072536;28;45372;-71
2022/12/25 04:36:50;;;;;;;2.00;1.25;;;17.00;71.10;;;;;;5041708;28;45371;-71
2022/12/25 04:39:18;;;;;;;3.92;1.30;;;17.00;71.00;;;;;;5061844;28;45358;-71
2022/12/25 04:41:45;;;;;;;2.67;1.35;;;17.00;70.90;;;;;;5062737;28;45594;-71
2022/12/25 04:44:12;;;;;;;3.53;1.02;;;17.00;70.90;;;;;;5062727;28;47028;-72
2022/12/25 04:46:39;;;;;;;3.20;1.42;;;17.00;70.70;;;;;;5062566;28;45246;-72
2022/12/25 04:49:06;;;;;;;2.70;1.10;;;17.00;70.50;;;;;;5058025;28;45332;-71
2022/12/25 04:51:32;;;;;;;2.08;1.20;;;17.00;70.50;;;;;;5055471;28;45479;-71
2022/12/25 04:53:59;;;;;;;2.35;1.10;;;17.00;70.40;;;;;;5071002;27;46517;-71
2022/12/25 04:56:27;;;;;;;4.00;1.35;;;17.00;70.40;;;;;;5070531;28;45332;-71
2022/12/25 04:58:54;;;;;;;2.20;1.25;;;17.10;70.20;;;;;;5062473;28;45299;-72
2022/12/25 05:01:21;;;;;;;3.03;1.05;;;17.00;70.00;;;;;;5062306;28;45288;-72
2022/12/25 05:03:48;;;;;;;3.20;1.20;;;17.00;70.20;;;;;;5061978;28;46389;-72
2022/12/25 05:06:14;;;;;;;3.22;1.08;;;17.00;70.10;;;;;;5062274;28;45491;-72
2022/12/25 05:08:41;;;;;;;3.20;1.23;;;17.00;70.00;;;;;;5061383;28;45340;-71
2022/12/25 05:11:10;;;;;;;3.03;1.30;;;17.00;70.00;;;;;;5061111;28;45406;-71
2022/12/25 05:13:38;;;;;;;2.00;1.00;;;17.00;69.90;;;;;;5042136;28;48276;-72
2022/12/25 05:16:06;;;;;;;1.50;1.10;;;17.00;70.20;;;;;;5043533;28;45396;-72
2022/12/25 05:18:33;;;;;;;2.00;0.88;;;17.00;70.10;;;;;;5059804;28;45379;-72
2022/12/25 05:21:00;;;;;;;1.60;1.15;;;16.90;70.00;;;;;;5072879;28;45332;-71
2022/12/25 05:23:27;;;;;;;2.65;1.20;;;16.90;69.90;;;;;;5041755;28;47155;-71
2022/12/25 05:25:54;;;;;;;3.13;1.10;;;16.90;69.80;;;;;;5042155;28;45297;-72
2022/12/25 05:28:20;;;;;;;2.05;0.82;;;16.90;69.90;;;;;;5044053;28;45348;-72
2022/12/25 05:30:49;;;;;;;2.75;1.27;;;16.90;69.70;;;;;;5062188;28;45495;-72
2022/12/25 05:33:15;;;;;;;1.88;1.23;;;16.90;69.70;;;;;;5061973;28;46443;-72
2022/12/25 05:35:42;;;;;;;2.65;1.08;;;16.90;69.90;;;;;;5062092;28;45545;-71
2022/12/25 05:38:09;;;;;;;3.50;1.40;;;16.90;69.80;;;;;;5061933;28;45324;-71
2022/12/25 05:40:39;;;;;;;2.17;0.90;;;16.90;69.60;;;;;;5061476;28;45715;-72
2022/12/25 05:43:06;;;;;;;2.40;0.93;;;17.00;69.60;;;;;;5062275;28;45467;-71
2022/12/25 05:45:33;;;;;;;2.08;1.25;;;17.00;69.50;;;;;;5056878;28;45415;-71
2022/12/25 05:48:01;;;;;;;2.72;1.00;;;17.00;69.30;;;;;;5044465;28;45308;-71
2022/12/25 05:50:28;;;;;;;4.28;1.10;;;17.00;69.20;;;;;;5047929;28;45351;-71
2022/12/25 05:52:55;;;;;;;1.67;0.90;;;17.00;69.10;;;;;;5065486;28;46082;-72
2022/12/25 05:55:22;;;;;;;2.17;0.95;;;17.00;69.10;;;;;;5065814;28;45480;-72
2022/12/25 05:57:48;;;;;;;4.00;0.85;;;17.00;69.20;;;;;;5064191;28;45528;-71
2022/12/25 06:00:16;;;;;;;2.85;1.05;;;16.90;68.90;;;;;;5065708;28;45488;-72
2022/12/25 06:02:42;;;;;;;1.95;1.02;;;17.00;68.70;;;;;;5058905;28;47916;-72
2022/12/25 06:05:11;;;;;;;1.02;0.70;;;16.90;68.70;;;;;;5045640;28;45301;-72
2022/12/25 06:07:37;;;;;;;2.22;1.02;;;16.90;68.80;;;;;;5045053;28;45222;-71
2022/12/25 06:10:05;;;;;;;3.13;0.90;;;17.00;68.90;;;;;;5045161;28;45491;-72
2022/12/25 06:12:32;;;;;;;3.53;1.05;;;17.00;69.30;;;;;;5044833;28;46586;-71
2022/12/25 06:14:59;;;;;;;1.15;0.73;;;17.00;69.60;;;;;;5044464;28;45348;-71
2022/12/25 06:17:26;;;;;;;1.58;1.00;;;17.00;69.70;;;;;;5043751;28;45333;-71
2022/12/25 06:19:53;;;;;;;2.15;0.90;;;17.00;69.90;;;;;;5051353;28;45606;-72
2022/12/25 06:22:21;;;;;;;1.60;0.80;;;17.00;70.00;;;;;;5053263;28;46531;-72
2022/12/25 06:24:48;;;;;;;4.78;0.77;;;17.00;70.20;;;;;;5064822;28;45284;-71
2022/12/25 06:27:15;;;;;;;1.67;0.90;;;17.00;70.30;;;;;;5064354;28;45282;-71
2022/12/25 06:29:42;;;;;;;2.38;0.88;;;17.00;70.50;;;;;;5065387;28;45251;-72
2022/12/25 06:32:09;;;;;;;2.80;0.70;;;17.00;70.50;;;;;;5064154;28;47309;-71
2022/12/25 06:34:35;;;;;;;1.50;0.90;;;17.10;70.70;;;;;;5065340;28;45490;-72
2022/12/25 06:37:02;;;;;;;2.33;0.90;;;17.10;70.70;;;;;;5055739;28;45422;-71
2022/12/25 06:39:30;;;;;;;1.20;0.80;;;17.10;70.70;;;;;;5045994;28;45496;-72
2022/12/25 06:41:57;;;;;;;3.38;1.08;;;17.20;70.80;;;;;;5071129;28;45481;-72
2022/12/25 06:44:24;;;;;;;1.90;0.70;;;17.10;70.80;;;;;;5072622;28;45430;-71
2022/12/25 06:46:53;;;;;;;1.30;0.65;;;17.20;71.00;;;;;;5064669;28;45552;-71
2022/12/25 06:49:20;;;;;;;2.53;0.80;;;17.10;71.00;;;;;;5064919;28;45455;-72
2022/12/25 06:51:47;;;;;;;1.58;0.73;;;17.10;71.00;;;;;;5066536;28;46246;-71
2022/12/25 06:54:14;;;;;;;1.45;0.85;;;17.10;71.00;;;;;;5059524;27;45364;-72
2022/12/25 06:56:42;;;;;;;2.33;0.82;;;17.10;71.20;;;;;;5070908;27;45292;-71
2022/12/25 06:59:11;;;;;;;1.63;0.68;;;17.20;71.30;;;;;;5063505;28;45467;-72
2022/12/25 07:01:44;;;;;;;2.10;0.80;;;17.10;71.40;;;;;;5063440;28;46601;-72
2022/12/25 07:04:16;;;;;;;3.13;0.85;;;17.10;71.50;;;;;;5064176;28;45290;-72
2022/12/25 07:06:43;;;;;;;1.17;0.60;;;17.10;71.50;;;;;;5063646;28;45357;-73
2022/12/25 07:09:13;;;;;;;1.83;0.75;;;17.00;71.70;;;;;;5063568;28;45444;-72
2022/12/25 07:11:39;;;;;;;1.55;0.70;;;17.00;71.80;;;;;;5062287;28;46320;-71
2022/12/25 07:14:07;;;;;;;4.10;1.10;;;17.00;72.00;;;;;;5061176;28;45296;-72
2022/12/25 07:16:35;;;;;;;1.25;0.65;;;17.00;72.10;;;;;;5057149;28;45355;-72
2022/12/25 07:19:02;;;;;;;1.27;0.60;;;17.00;72.20;;;;;;5064848;28;45407;-72
2022/12/25 07:21:29;;;;;;;0.80;0.60;;;17.00;72.20;;;;;;5064048;27;46555;-72
2022/12/25 07:23:56;;;;;;;2.58;0.95;;;17.00;72.20;;;;;;5061347;28;45515;-71
2022/12/25 07:26:22;;;;;;;1.33;0.82;;;17.00;72.30;;;;;;5067100;28;45391;-72
2022/12/25 07:28:49;;;;;;;1.25;0.68;;;17.00;72.20;;;;;;5059946;27;45516;-71
2022/12/25 07:31:18;;;;;;;2.42;0.73;;;17.00;72.30;;;;;;5063108;28;45534;-71
2022/12/25 07:33:45;;;;;;;1.13;0.38;;;17.00;72.40;;;;;;5063533;28;45371;-71
2022/12/25 07:36:13;;;;;;;2.05;0.80;;;17.00;72.30;;;;;;5067527;28;45451;-71
2022/12/25 07:38:40;;;;;;;3.13;0.90;;;17.10;72.40;;;;;;5085643;27;45537;-71
2022/12/25 07:41:08;;;;;;;3.28;0.90;;;17.00;72.30;;;;;;5067799;27;45404;-71
2022/12/25 07:43:35;;;;;;;1.70;0.60;;;17.10;72.30;;;;;;5072012;28;45899;-72
2022/12/25 07:46:01;;;;;;;0.75;0.60;;;17.10;72.40;;;;;;5066444;27;45286;-72
2022/12/25 07:48:30;;;;;;;1.90;0.70;;;17.10;72.40;;;;;;5062130;28;45423;-72
2022/12/25 07:50:58;;;;;;;2.20;0.90;;;17.10;72.30;;;;;;5064378;28;47371;-71
2022/12/25 07:53:25;;;;;;;1.50;0.70;;;17.00;72.10;;;;;;5063627;28;45763;-72
2022/12/25 07:56:00;;;;;;;1.48;0.77;;;17.00;71.90;;;;;;5063266;28;45359;-71
2022/12/25 07:58:27;;;;;;;1.60;0.82;;;17.00;71.70;;;;;;5062521;28;45418;-73
2022/12/25 08:00:54;;;;;;;1.92;0.90;;;17.00;71.60;;;;;;5062304;28;46390;-71
2022/12/25 08:03:21;;;;;;;1.55;0.90;;;17.00;71.50;;;;;;5066390;28;45676;-71
2022/12/25 08:05:49;;;;;;;1.92;0.85;;;17.00;71.30;;;;;;5069701;27;45547;-72
2022/12/25 08:08:16;;;;;;;1.55;0.90;;;17.00;71.30;;;;;;5059017;28;45429;-72
2022/12/25 08:10:46;;;;;;;1.50;0.80;;;17.00;71.20;;;;;;5071390;27;47528;-71
2022/12/25 08:13:13;;;;;;;4.18;1.00;;;17.00;71.10;;;;;;5042980;28;45431;-72
2022/12/25 08:15:40;;;;;;;1.52;0.90;;;17.00;70.90;;;;;;5059222;28;45358;-72
2022/12/25 08:18:07;;;;;;;1.02;0.73;;;17.00;71.00;;;;;;5069511;28;45399;-72
2022/12/25 08:20:34;;;;;;;2.08;1.00;;;17.00;70.90;;;;;;5068736;28;45551;-71
2022/12/25 08:23:02;;;;;;;1.67;0.88;;;17.00;70.80;;;;;;5061420;28;46460;-71
2022/12/25 08:25:29;;;;;;;2.78;1.17;;;17.10;70.80;;;;;;5071060;28;45351;-71
2022/12/25 08:27:56;;;;;;;5.00;1.20;;;17.10;70.90;;;;;;5070198;28;45344;-72
2022/12/25 08:30:23;;;;;;;1.10;0.65;;;17.10;71.10;;;;;;5071276;27;47542;-71
2022/12/25 08:32:50;;;;;;;1.25;0.70;;;17.10;71.20;;;;;;5053668;28;45396;-71
2022/12/25 08:35:17;;;;;;;1.92;1.02;;;17.20;71.30;;;;;;5045159;28;45527;-71
2022/12/25 08:37:43;;;;;;;3.45;0.80;;;17.10;71.20;;;;;;5062266;28;45478;-71
2022/12/25 08:40:13;;;;;;;2.45;1.20;;;17.20;71.40;;;;;;5073131;27;46379;-72
2022/12/25 08:42:39;;;;;;;1.83;0.77;;;17.10;71.50;;;;;;5062078;28;45619;-72
2022/12/25 08:45:07;;;;;;;1.70;0.77;;;17.10;71.70;;;;;;5062226;28;45262;-72
2022/12/25 08:47:34;;;;;;;2.03;0.80;;;17.10;71.80;;;;;;5061640;28;45526;-72
2022/12/25 08:50:01;;;;;;;2.35;0.80;;;17.10;71.90;;;;;;5062087;28;45440;-72
2022/12/25 08:52:28;;;;;;;2.65;0.90;;;17.10;71.90;;;;;;5061643;28;45558;-72
2022/12/25 08:54:55;;;;;;;0.80;0.50;;;17.10;72.10;;;;;;5063006;28;45447;-72
2022/12/25 08:57:23;;;;;;;1.45;0.60;;;17.10;72.20;;;;;;5061691;28;45223;-72
2022/12/25 08:59:50;;;;;;;3.65;0.93;;;17.10;72.30;;;;;;5061977;28;46287;-71
2022/12/25 09:02:17;;;;;;;5.45;0.88;;;17.10;72.60;;;;;;5061897;28;45511;-71
2022/12/25 09:04:45;;;;;;;3.72;0.90;;;17.10;72.80;;;;;;5067009;28;45351;-72
2022/12/25 09:07:12;;;;;;;2.90;0.90;;;17.10;72.70;;;;;;5073899;28;45471;-73
2022/12/25 09:09:39;;;;;;;1.67;0.80;;;17.10;72.80;;;;;;5053711;28;46238;-71
2022/12/25 09:12:06;;;;;;;3.08;1.17;;;17.10;72.70;;;;;;5055185;28;45402;-72
2022/12/25 09:14:34;;;;;;;2.40;1.00;;;17.10;72.80;;;;;;5064652;28;45345;-71
2022/12/25 09:17:00;;;;;;;2.28;0.90;;;17.10;73.30;;;;;;5069220;27;45435;-71
2022/12/25 09:19:27;;;;;;;1.52;0.68;;;17.10;73.70;;;;;;5076384;27;47511;-71
2022/12/25 09:21:54;;;;;;;2.92;0.98;;;17.10;74.00;;;;;;5071465;27;45371;-71
2022/12/25 09:24:21;;;;;;;1.95;1.00;;;17.10;74.00;;;;;;5075540;28;45469;-72
2022/12/25 09:26:48;;;;;;;1.83;1.00;;;17.10;73.30;;;;;;5069641;27;45406;-72
2022/12/25 09:29:16;;;;;;;1.80;1.10;;;17.10;72.60;;;;;;5063071;28;47459;-71
2022/12/25 09:31:44;;;;;;;1.55;1.00;;;17.10;72.40;;;;;;5073810;27;45332;-72
2022/12/25 09:34:11;;;;;;;2.20;1.08;;;17.00;71.90;;;;;;5062902;27;45464;-72
2022/12/25 09:36:38;;;;;;;1.15;0.95;;;17.00;71.60;;;;;;5069889;27;45608;-72
2022/12/25 09:39:05;;;;;;;1.90;0.93;;;17.00;71.50;;;;;;5064778;28;46100;-71
2022/12/25 09:41:37;;;;;;;3.22;1.10;;;16.90;71.50;;;;;;5067963;28;45749;-71
2022/12/25 09:44:07;;;;;;;3.50;1.23;;;16.90;71.40;;;;;;5059157;28;45293;-72
2022/12/25 09:46:41;;;;;;;2.35;0.82;;;16.90;71.40;;;;;;5062000;28;45357;-71
2022/12/25 09:49:18;;;;;;;2.53;1.25;;;16.90;71.40;;;;;;5073103;28;47069;-72
2022/12/25 09:51:48;;;;;;;2.17;1.10;;;16.90;71.40;;;;;;5071095;27;45496;-71
2022/12/25 09:54:20;;;;;;;1.25;0.80;;;16.90;71.30;;;;;;5064777;28;45265;-71
2022/12/25 09:56:47;;;;;;;3.80;1.15;;;16.90;71.30;;;;;;5061242;28;45423;-71
2022/12/25 09:59:21;;;;;;;3.33;1.17;;;16.90;71.70;;;;;;5061521;28;47381;-71
2022/12/25 10:02:04;;;;;;;0.77;0.70;;;16.90;71.90;;;;;;5061344;28;45345;-71
2022/12/25 10:04:47;;;;;;;2.65;0.80;;;17.10;72.20;;;;;;5061389;28;45401;-71
2022/12/25 10:07:21;;;;;;;2.20;1.00;;;17.20;71.70;;;;;;5062688;28;45342;-71
2022/12/25 10:10:02;;;;;;;2.78;1.15;;;17.30;71.40;;;;;;5060626;28;46231;-71
2022/12/25 10:12:41;;;;;;;1.40;0.75;;;17.40;71.20;;;;;;5059305;28;45432;-72
2022/12/25 10:15:19;;;;;;;1.30;0.90;;;17.50;71.20;;;;;;5070859;28;45367;-71
2022/12/25 10:18:00;;;;;;;1.08;0.80;;;17.50;71.00;;;;;;5065376;27;45369;-72
2022/12/25 10:20:40;;;;;;;2.15;1.00;;;17.50;71.40;;;;;;5048640;28;45348;-71
2022/12/25 10:23:14;;;;;;;1.52;0.77;;;17.40;71.50;;;;;;5063821;28;45437;-71
2022/12/25 10:25:42;;;;;;;2.20;0.85;;;17.40;72.80;;;;;;5061212;28;45418;-71
2022/12/25 10:28:14;;;;;;;2.30;1.00;;;17.40;71.60;;;;;;5061039;28;45413;-71
2022/12/25 10:30:43;;;;;;;3.55;1.17;;;17.40;71.50;;;;;;5061735;28;46831;-71
2022/12/25 10:33:14;;;;;;;0.80;0.63;;;17.50;71.50;;;;;;5062619;28;45427;-71
2022/12/25 10:35:42;;;;;;;1.65;0.90;;;17.50;71.40;;;;;;5062331;28;45284;-71
2022/12/25 10:38:13;;;;;;;1.10;0.93;;;17.60;71.30;;;;;;5063593;28;45313;-72
2022/12/25 10:40:54;;;;;;;2.72;0.82;;;17.60;71.30;;;;;;5064850;28;46557;-71
2022/12/25 10:43:26;;;;;;;2.00;1.00;;;17.60;71.30;;;;;;5065611;28;45286;-71
2022/12/25 10:45:53;;;;;;;2.63;0.70;;;17.60;71.30;;;;;;5064892;28;45365;-71
2022/12/25 10:48:23;;;;;;;1.20;0.70;;;17.60;71.20;;;;;;5065398;28;45296;-71
2022/12/25 10:50:51;;;;;;;1.77;0.88;;;17.60;71.20;;;;;;5064561;28;46587;-71
2022/12/25 10:53:21;;;;;;;1.38;0.85;;;17.60;71.10;;;;;;5064843;28;45388;-71
2022/12/25 10:55:58;;;;;;;2.00;0.80;;;17.60;71.10;;;;;;5065612;28;45247;-72
2022/12/25 10:58:25;;;;;;;2.95;1.02;;;17.60;71.00;;;;;;5064837;28;45185;-71
2022/12/25 11:00:57;;;;;;;1.05;0.77;;;17.60;71.10;;;;;;5064768;28;46591;-71
2022/12/25 11:03:26;;;;;;;0.82;0.65;;;17.60;71.00;;;;;;5064589;28;45356;-71
2022/12/25 11:05:55;;;;;;;1.42;0.77;;;17.60;71.00;;;;;;5065071;28;45250;-71
2022/12/25 11:08:24;;;;;;;0.98;0.65;;;17.60;71.00;;;;;;5064929;28;45304;-71
2022/12/25 11:10:56;;;;;;;1.95;0.80;;;17.70;71.20;;;;;;5065604;28;45462;-71
2022/12/25 11:13:25;;;;;;;1.40;0.80;;;17.70;71.10;;;;;;5065913;28;45240;-71
2022/12/25 11:16:03;;;;;;;2.55;0.70;;;17.70;71.10;;;;;;5065991;28;45514;-71
2022/12/25 11:18:34;;;;;;;1.63;0.80;;;17.70;71.00;;;;;;5065126;28;45478;-72
2022/12/25 11:21:13;;;;;;;1.65;1.00;;;17.70;71.10;;;;;;5064393;28;45363;-72
2022/12/25 11:23:45;;;;;;;1.17;0.85;;;17.70;71.10;;;;;;5065177;28;45292;-71
2022/12/25 11:26:12;;;;;;;1.13;0.80;;;17.70;71.00;;;;;;5063716;28;45260;-71
2022/12/25 11:28:41;;;;;;;1.65;0.90;;;17.70;71.20;;;;;;5064262;28;45235;-71
2022/12/25 11:31:12;;;;;;;2.03;0.77;;;17.70;71.00;;;;;;5064640;28;47501;-72
2022/12/25 11:33:47;;;;;;;0.77;0.63;;;17.70;71.10;;;;;;5063519;28;45388;-71
2022/12/25 11:36:21;;;;;;;0.95;0.70;;;17.70;71.10;;;;;;5065388;28;45294;-71
2022/12/25 11:38:48;;;;;;;1.20;0.80;;;17.70;71.10;;;;;;5064695;28;45428;-71
2022/12/25 11:41:19;;;;;;;2.75;0.85;;;17.70;71.20;;;;;;5065458;28;47526;-71
2022/12/25 11:43:52;;;;;;;0.68;0.55;;;17.70;71.10;;;;;;5064882;28;45269;-71
2022/12/25 11:46:25;;;;;;;3.03;0.63;;;17.70;71.10;;;;;;5065662;28;45295;-71
2022/12/25 11:48:55;;;;;;;0.77;0.50;;;17.70;71.00;;;;;;5065085;28;45451;-71
2022/12/25 11:51:27;;;;;;;1.40;0.60;;;17.70;71.00;;;;;;5065243;28;45623;-71
2022/12/25 11:53:58;;;;;;;1.25;0.80;;;17.70;70.90;;;;;;5065478;28;45473;-71
2022/12/25 11:56:26;;;;;;;1.67;0.57;;;17.70;70.80;;;;;;5065392;28;45185;-71
2022/12/25 11:58:55;;;;;;;1.20;0.70;;;17.70;70.80;;;;;;5064951;28;45408;-71
2022/12/25 12:01:29;;;;;;;1.60;0.55;;;17.70;70.80;;;;;;5044378;28;46096;-71
2022/12/25 12:03:58;;;;;;;0.88;0.70;;;17.70;70.80;;;;;;5044761;28;45716;-71
2022/12/25 12:06:30;;;;;;;1.17;0.60;;;17.70;70.70;;;;;;5044626;28;45328;-71
2022/12/25 12:09:05;;;;;;;1.58;0.85;;;17.70;70.70;;;;;;5044198;28;45421;-72
2022/12/25 12:11:37;;;;;;;1.48;0.70;;;17.70;70.60;;;;;;5044145;28;47091;-72
2022/12/25 12:14:19;;;;;;;1.05;0.80;;;17.70;70.50;;;;;;5044060;28;45315;-72
2022/12/25 12:16:46;;;;;;;1.58;0.52;;;17.80;70.60;;;;;;5043396;28;45416;-72
2022/12/25 12:19:25;;;;;;;1.83;0.70;;;17.80;70.60;;;;;;5043122;28;45634;-72
2022/12/25 12:21:56;;;;;;;1.15;0.70;;;17.80;70.60;;;;;;5043202;28;46416;-72
2022/12/25 12:24:25;;;;;;;0.47;0.43;;;17.80;70.60;;;;;;5043118;28;45431;-72
2022/12/25 12:27:03;;;;;;;1.33;0.77;;;17.80;70.70;;;;;;5043568;28;45359;-72
2022/12/25 12:29:35;;;;;;;0.80;0.50;;;17.80;70.70;;;;;;5040045;28;45270;-71
2022/12/25 12:32:04;;;;;;;1.50;0.70;;;17.80;70.70;;;;;;5043652;28;45254;-72
2022/12/25 12:34:36;;;;;;;0.88;0.70;;;17.80;70.70;;;;;;5043541;28;45358;-72
2022/12/25 12:37:17;;;;;;;0.90;0.60;;;17.80;70.70;;;;;;5043521;28;45213;-71
2022/12/25 12:39:44;;;;;;;1.45;0.70;;;17.80;70.90;;;;;;5044035;28;45429;-72
2022/12/25 12:42:16;;;;;;;0.70;0.50;;;17.70;70.80;;;;;;5043928;28;46291;-72
2022/12/25 12:44:44;;;;;;;0.50;0.50;;;17.80;70.90;;;;;;5044214;28;45352;-71
2022/12/25 12:47:30;;;;;;;1.13;0.63;;;17.80;71.00;;;;;;5044046;28;45417;-71
2022/12/25 12:50:01;;;;;;;3.03;0.75;;;17.70;70.90;;;;;;5044326;28;45207;-72
2022/12/25 12:52:34;;;;;;;0.70;0.50;;;17.70;70.90;;;;;;5041909;28;45336;-71
2022/12/25 12:55:04;;;;;;;1.30;0.60;;;17.70;71.10;;;;;;5043224;28;45420;-72
2022/12/25 12:57:38;;;;;;;0.80;0.65;;;17.70;71.00;;;;;;5041277;28;45264;-72
2022/12/25 13:00:08;;;;;;;1.67;0.50;;;17.80;71.00;;;;;;5043745;28;45253;-72
2022/12/25 13:03:00;;;;;;;1.02;0.70;;;17.80;71.00;;;;;;5042416;28;45388;-72
2022/12/25 13:05:36;;;;;;;1.65;0.68;;;17.80;71.00;;;;;;5043508;28;46117;-72
2022/12/25 13:08:17;;;;;;;0.98;0.60;;;17.80;71.00;;;;;;5042337;28;45298;-73
2022/12/25 13:10:48;;;;;;;1.67;0.57;;;17.80;71.00;;;;;;5043673;28;45385;-72
2022/12/25 13:13:20;;;;;;;0.50;0.40;;;17.80;70.90;;;;;;5043363;28;45290;-72
2022/12/25 13:15:49;;;;;;;1.15;0.65;;;17.80;71.00;;;;;;5042786;28;45745;-72
2022/12/25 13:18:17;;;;;;;1.30;0.80;;;17.80;71.00;;;;;;5042900;28;45327;-72
2022/12/25 13:20:53;;;;;;;1.45;0.70;;;17.80;71.00;;;;;;5043054;28;45306;-72
2022/12/25 13:23:31;;;;;;;1.00;0.80;;;17.80;71.10;;;;;;5043439;28;47620;-73
2022/12/25 13:26:00;;;;;;;2.30;1.08;;;17.80;71.00;;;;;;5042663;28;45386;-72
2022/12/25 13:28:28;;;;;;;1.25;0.80;;;17.80;71.00;;;;;;5042961;28;45308;-72
2022/12/25 13:31:02;;;;;;;0.77;0.60;;;17.80;71.10;;;;;;5042507;28;45586;-72
2022/12/25 13:33:29;;;;;;;0.60;0.60;;;17.80;71.20;;;;;;5043083;28;46375;-72
2022/12/25 13:35:56;;;;;;;0.95;0.55;;;17.80;71.20;;;;;;5043058;28;45353;-72
2022/12/25 13:38:25;;;;;;;1.20;0.73;;;17.80;71.20;;;;;;5041868;28;45353;-72
2022/12/25 13:43:40;;;;;;;1.33;0.68;;;17.70;71.30;;;;;;5039720;28;45342;-72
2022/12/25 13:46:07;;;;;;;2.03;0.82;;;17.70;71.40;;;;;;5042772;28;45370;-72
2022/12/25 13:48:34;;;;;;;1.67;0.80;;;17.70;71.20;;;;;;5042563;28;45409;-71
2022/12/25 13:51:02;;;;;;;2.17;0.60;;;17.80;71.20;;;;;;5042934;28;45327;-73
2022/12/25 13:53:29;;;;;;;1.75;0.70;;;17.80;71.20;;;;;;5042368;28;46726;-72
2022/12/25 13:55:59;;;;;;;1.52;1.00;;;17.80;71.20;;;;;;5042630;28;45310;-72
2022/12/25 13:58:29;;;;;;;1.65;0.80;;;17.80;71.20;;;;;;5042475;28;45308;-72
2022/12/25 14:00:57;;;;;;;2.83;1.00;;;17.80;71.20;;;;;;5042805;28;45571;-71
2022/12/25 14:03:30;;;;;;;1.70;1.00;;;17.80;71.20;;;;;;5042369;28;46349;-71
2022/12/25 14:05:59;;;;;;;1.55;1.00;;;17.80;71.10;;;;;;5041966;28;45359;-71
2022/12/25 14:08:30;;;;;;;1.25;0.80;;;17.80;71.00;;;;;;5044311;28;45254;-72
2022/12/25 14:11:02;;;;;;;1.30;0.80;;;17.80;71.00;;;;;;5046068;28;45404;-72
2022/12/25 14:13:31;;;;;;;1.02;0.70;;;17.80;70.90;;;;;;5045822;28;48248;-72
2022/12/25 14:15:58;;;;;;;1.05;0.80;;;17.80;70.80;;;;;;5046049;28;45356;-71
2022/12/25 14:18:31;;;;;;;1.85;0.98;;;17.80;70.80;;;;;;5044883;28;45390;-71
2022/12/25 14:21:01;;;;;;;1.02;0.77;;;17.80;70.80;;;;;;5045786;28;45581;-71
2022/12/25 14:23:39;;;;;;;1.92;0.98;;;17.80;70.80;;;;;;5042401;28;46073;-71
2022/12/25 14:26:07;;;;;;;1.08;0.90;;;17.70;70.70;;;;;;5045664;28;45435;-71
2022/12/25 14:28:35;;;;;;;1.88;0.90;;;17.80;70.70;;;;;;5045264;28;45387;-71
2022/12/25 14:31:03;;;;;;;0.75;0.65;;;17.80;70.80;;;;;;5045750;28;45333;-71
2022/12/25 14:33:37;;;;;;;2.90;1.02;;;17.80;70.80;;;;;;5045278;28;47991;-71
2022/12/25 14:36:05;;;;;;;1.42;0.90;;;17.80;70.90;;;;;;5044993;28;46002;-72
2022/12/25 14:38:33;;;;;;;0.93;0.85;;;17.80;70.90;;;;;;5043022;28;45313;-71
2022/12/25 14:41:02;;;;;;;1.70;1.00;;;17.80;70.80;;;;;;5044777;28;45571;-71
2022/12/25 14:43:31;;;;;;;0.80;0.80;;;17.80;70.80;;;;;;5045603;28;47357;-72
2022/12/25 14:46:00;;;;;;;1.17;0.98;;;17.80;71.00;;;;;;5044677;28;45415;-71